sensor_id;sensor_type;location;lat;lon;timestamp;P1;durP1;ratioP1;P2;durP2;ratioP2
16743;SDS011;71724;-33.900;151.182;2024-01-16T00:01:06;13.50;;;2.78;;
16743;SDS011;71724;-33.900;151.182;2024-01-16T00:03:34;14.93;;;2.42;;
16743;SDS011;71724;-33.900;151.182;2024-01-16T00:06:02;17.38;;;2.67;;
16743;SDS011;71724;-33.900;151.182;2024-01-16T00:08:30;8.60;;;2.10;;
16743;SDS011;71724;-33.900;151.182;2024-01-16T00:10:58;11.25;;;2.40;;
16743;SDS011;71724;-33.900;151.182;2024-01-16T00:13:27;12.70;;;2.30;;
16743;SDS011;71724;-33.900;151.182;2024-01-16T00:15:57;13.82;;;2.85;;
16743;SDS011;71724;-33.900;151.182;2024-01-16T00:18:25;12.23;;;2.40;;
16743;SDS011;71724;-33.900;151.182;2024-01-16T00:20:53;14.80;;;3.08;;
16743;SDS011;71724;-33.900;151.182;2024-01-16T00:23:21;15.27;;;2.42;;
16743;SDS011;71724;-33.900;151.182;2024-01-16T00:25:48;14.25;;;3.05;;
16743;SDS011;71724;-33.900;151.182;2024-01-16T00:28:16;16.05;;;2.63;;
16743;SDS011;71724;-33.900;151.182;2024-01-16T00:30:49;12.18;;;2.30;;
16743;SDS011;71724;-33.900;151.182;2024-01-16T00:33:17;12.73;;;3.03;;
16743;SDS011;71724;-33.900;151.182;2024-01-16T00:35:45;12.57;;;2.50;;
16743;SDS011;71724;-33.900;151.182;2024-01-16T00:38:13;10.90;;;2.35;;
16743;SDS011;71724;-33.900;151.182;2024-01-16T00:40:41;9.65;;;2.38;;
16743;SDS011;71724;-33.900;151.182;2024-01-16T00:43:09;12.57;;;2.20;;
16743;SDS011;71724;-33.900;151.182;2024-01-16T00:45:36;10.43;;;2.35;;
16743;SDS011;71724;-33.900;151.182;2024-01-16T00:48:06;10.85;;;2.45;;
16743;SDS011;71724;-33.900;151.182;2024-01-16T00:50:36;14.00;;;2.72;;
16743;SDS011;71724;-33.900;151.182;2024-01-16T00:53:06;13.95;;;2.70;;
16743;SDS011;71724;-33.900;151.182;2024-01-16T00:55:34;14.10;;;2.22;;
16743;SDS011;71724;-33.900;151.182;2024-01-16T00:58:04;12.82;;;2.22;;
16743;SDS011;71724;-33.900;151.182;2024-01-16T01:00:31;10.88;;;2.80;;
16743;SDS011;71724;-33.900;151.182;2024-01-16T01:03:01;9.05;;;2.45;;
16743;SDS011;71724;-33.900;151.182;2024-01-16T01:05:32;8.18;;;2.20;;
16743;SDS011;71724;-33.900;151.182;2024-01-16T01:08:00;11.07;;;2.10;;
16743;SDS011;71724;-33.900;151.182;2024-01-16T01:10:27;10.88;;;2.58;;
16743;SDS011;71724;-33.900;151.182;2024-01-16T01:12:55;13.77;;;2.72;;
16743;SDS011;71724;-33.900;151.182;2024-01-16T01:15:23;16.58;;;2.60;;
16743;SDS011;71724;-33.900;151.182;2024-01-16T01:17:52;12.95;;;2.70;;
16743;SDS011;71724;-33.900;151.182;2024-01-16T01:20:20;15.75;;;2.35;;
16743;SDS011;71724;-33.900;151.182;2024-01-16T01:22:50;13.68;;;2.50;;
16743;SDS011;71724;-33.900;151.182;2024-01-16T01:25:18;22.15;;;3.75;;
16743;SDS011;71724;-33.900;151.182;2024-01-16T01:27:49;14.23;;;2.47;;
16743;SDS011;71724;-33.900;151.182;2024-01-16T01:30:16;11.90;;;2.60;;
16743;SDS011;71724;-33.900;151.182;2024-01-16T01:32:44;10.05;;;1.95;;
16743;SDS011;71724;-33.900;151.182;2024-01-16T01:35:18;13.77;;;2.20;;
16743;SDS011;71724;-33.900;151.182;2024-01-16T01:37:47;9.10;;;2.10;;
16743;SDS011;71724;-33.900;151.182;2024-01-16T01:40:15;6.68;;;1.70;;
16743;SDS011;71724;-33.900;151.182;2024-01-16T01:42:45;11.27;;;2.15;;
16743;SDS011;71724;-33.900;151.182;2024-01-16T01:45:14;10.80;;;2.45;;
16743;SDS011;71724;-33.900;151.182;2024-01-16T01:47:42;12.75;;;2.20;;
16743;SDS011;71724;-33.900;151.182;2024-01-16T01:50:11;8.95;;;1.95;;
16743;SDS011;71724;-33.900;151.182;2024-01-16T01:52:47;7.45;;;1.70;;
16743;SDS011;71724;-33.900;151.182;2024-01-16T01:55:16;9.45;;;2.10;;
16743;SDS011;71724;-33.900;151.182;2024-01-16T01:57:44;6.05;;;1.80;;
16743;SDS011;71724;-33.900;151.182;2024-01-16T02:00:13;11.10;;;2.30;;
16743;SDS011;71724;-33.900;151.182;2024-01-16T02:02:44;8.98;;;2.00;;
16743;SDS011;71724;-33.900;151.182;2024-01-16T02:05:13;7.75;;;1.90;;
16743;SDS011;71724;-33.900;151.182;2024-01-16T02:07:43;8.82;;;2.28;;
16743;SDS011;71724;-33.900;151.182;2024-01-16T02:10:12;7.47;;;1.85;;
16743;SDS011;71724;-33.900;151.182;2024-01-16T02:12:41;12.77;;;2.47;;
16743;SDS011;71724;-33.900;151.182;2024-01-16T02:15:10;11.68;;;2.33;;
16743;SDS011;71724;-33.900;151.182;2024-01-16T02:17:39;14.25;;;3.38;;
16743;SDS011;71724;-33.900;151.182;2024-01-16T02:20:07;12.45;;;2.78;;
16743;SDS011;71724;-33.900;151.182;2024-01-16T02:22:38;12.73;;;2.60;;
16743;SDS011;71724;-33.900;151.182;2024-01-16T02:25:08;12.00;;;2.00;;
16743;SDS011;71724;-33.900;151.182;2024-01-16T02:27:37;13.35;;;2.50;;
16743;SDS011;71724;-33.900;151.182;2024-01-16T02:30:05;14.48;;;2.45;;
16743;SDS011;71724;-33.900;151.182;2024-01-16T02:32:35;13.98;;;2.50;;
16743;SDS011;71724;-33.900;151.182;2024-01-16T02:35:04;11.40;;;2.20;;
16743;SDS011;71724;-33.900;151.182;2024-01-16T02:37:33;11.40;;;2.50;;
16743;SDS011;71724;-33.900;151.182;2024-01-16T02:40:01;8.50;;;2.20;;
16743;SDS011;71724;-33.900;151.182;2024-01-16T02:42:32;11.77;;;2.42;;
16743;SDS011;71724;-33.900;151.182;2024-01-16T02:45:00;8.55;;;2.38;;
16743;SDS011;71724;-33.900;151.182;2024-01-16T02:47:29;9.43;;;2.10;;
16743;SDS011;71724;-33.900;151.182;2024-01-16T02:49:58;10.30;;;2.35;;
16743;SDS011;71724;-33.900;151.182;2024-01-16T02:52:27;12.27;;;2.45;;
16743;SDS011;71724;-33.900;151.182;2024-01-16T02:54:55;9.45;;;1.77;;
16743;SDS011;71724;-33.900;151.182;2024-01-16T02:57:24;9.98;;;2.47;;
16743;SDS011;71724;-33.900;151.182;2024-01-16T02:59:52;9.88;;;1.65;;
16743;SDS011;71724;-33.900;151.182;2024-01-16T03:02:24;12.60;;;1.88;;
16743;SDS011;71724;-33.900;151.182;2024-01-16T03:04:52;10.98;;;2.05;;
16743;SDS011;71724;-33.900;151.182;2024-01-16T03:07:20;12.75;;;2.70;;
16743;SDS011;71724;-33.900;151.182;2024-01-16T03:09:50;14.95;;;2.97;;
16743;SDS011;71724;-33.900;151.182;2024-01-16T03:12:18;10.95;;;2.60;;
16743;SDS011;71724;-33.900;151.182;2024-01-16T03:14:46;12.13;;;2.45;;
16743;SDS011;71724;-33.900;151.182;2024-01-16T03:17:14;13.02;;;3.08;;
16743;SDS011;71724;-33.900;151.182;2024-01-16T03:19:43;8.10;;;3.08;;
16743;SDS011;71724;-33.900;151.182;2024-01-16T03:22:11;9.77;;;2.30;;
16743;SDS011;71724;-33.900;151.182;2024-01-16T03:24:39;10.98;;;2.38;;
16743;SDS011;71724;-33.900;151.182;2024-01-16T03:27:12;8.85;;;2.50;;
16743;SDS011;71724;-33.900;151.182;2024-01-16T03:29:41;12.38;;;2.10;;
16743;SDS011;71724;-33.900;151.182;2024-01-16T03:32:11;9.93;;;2.10;;
16743;SDS011;71724;-33.900;151.182;2024-01-16T03:34:40;15.57;;;2.30;;
16743;SDS011;71724;-33.900;151.182;2024-01-16T03:37:08;11.95;;;2.45;;
16743;SDS011;71724;-33.900;151.182;2024-01-16T03:39:36;13.18;;;2.20;;
16743;SDS011;71724;-33.900;151.182;2024-01-16T03:42:04;14.73;;;2.25;;
16743;SDS011;71724;-33.900;151.182;2024-01-16T03:44:32;11.60;;;1.95;;
16743;SDS011;71724;-33.900;151.182;2024-01-16T03:47:09;8.63;;;2.25;;
16743;SDS011;71724;-33.900;151.182;2024-01-16T03:49:39;12.85;;;2.33;;
16743;SDS011;71724;-33.900;151.182;2024-01-16T03:52:07;12.73;;;2.85;;
16743;SDS011;71724;-33.900;151.182;2024-01-16T03:54:35;13.60;;;2.83;;
16743;SDS011;71724;-33.900;151.182;2024-01-16T03:57:03;15.52;;;2.85;;
16743;SDS011;71724;-33.900;151.182;2024-01-16T03:59:31;11.77;;;2.33;;
16743;SDS011;71724;-33.900;151.182;2024-01-16T04:02:00;13.43;;;2.40;;
16743;SDS011;71724;-33.900;151.182;2024-01-16T04:04:29;12.38;;;2.60;;
16743;SDS011;71724;-33.900;151.182;2024-01-16T04:06:57;12.18;;;2.47;;
16743;SDS011;71724;-33.900;151.182;2024-01-16T04:09:25;12.38;;;2.22;;
16743;SDS011;71724;-33.900;151.182;2024-01-16T04:11:53;16.20;;;2.60;;
16743;SDS011;71724;-33.900;151.182;2024-01-16T04:14:21;9.27;;;2.15;;
16743;SDS011;71724;-33.900;151.182;2024-01-16T04:16:49;8.55;;;1.88;;
16743;SDS011;71724;-33.900;151.182;2024-01-16T04:19:17;15.45;;;2.47;;
16743;SDS011;71724;-33.900;151.182;2024-01-16T04:21:46;13.13;;;2.17;;
16743;SDS011;71724;-33.900;151.182;2024-01-16T04:24:14;9.10;;;1.95;;
16743;SDS011;71724;-33.900;151.182;2024-01-16T04:26:46;12.90;;;2.25;;
16743;SDS011;71724;-33.900;151.182;2024-01-16T04:29:13;14.18;;;2.20;;
16743;SDS011;71724;-33.900;151.182;2024-01-16T04:31:41;12.82;;;2.45;;
16743;SDS011;71724;-33.900;151.182;2024-01-16T04:34:09;19.90;;;2.75;;
16743;SDS011;71724;-33.900;151.182;2024-01-16T04:36:37;14.25;;;2.45;;
16743;SDS011;71724;-33.900;151.182;2024-01-16T04:39:05;14.40;;;2.45;;
16743;SDS011;71724;-33.900;151.182;2024-01-16T04:41:34;15.70;;;2.65;;
16743;SDS011;71724;-33.900;151.182;2024-01-16T04:44:02;11.57;;;2.13;;
16743;SDS011;71724;-33.900;151.182;2024-01-16T04:46:29;10.60;;;2.00;;
16743;SDS011;71724;-33.900;151.182;2024-01-16T04:48:56;8.98;;;1.98;;
16743;SDS011;71724;-33.900;151.182;2024-01-16T04:51:24;12.48;;;2.25;;
16743;SDS011;71724;-33.900;151.182;2024-01-16T04:53:51;12.68;;;2.80;;
16743;SDS011;71724;-33.900;151.182;2024-01-16T04:56:22;12.55;;;2.17;;
16743;SDS011;71724;-33.900;151.182;2024-01-16T04:58:49;9.15;;;2.00;;
16743;SDS011;71724;-33.900;151.182;2024-01-16T05:01:18;9.82;;;1.80;;
16743;SDS011;71724;-33.900;151.182;2024-01-16T05:03:45;9.27;;;1.88;;
16743;SDS011;71724;-33.900;151.182;2024-01-16T05:06:13;11.07;;;2.83;;
16743;SDS011;71724;-33.900;151.182;2024-01-16T05:08:41;10.18;;;2.03;;
16743;SDS011;71724;-33.900;151.182;2024-01-16T05:11:09;12.55;;;2.53;;
16743;SDS011;71724;-33.900;151.182;2024-01-16T05:13:36;10.43;;;2.30;;
16743;SDS011;71724;-33.900;151.182;2024-01-16T05:16:04;16.85;;;2.50;;
16743;SDS011;71724;-33.900;151.182;2024-01-16T05:18:32;10.13;;;2.30;;
16743;SDS011;71724;-33.900;151.182;2024-01-16T05:20:59;13.23;;;2.67;;
16743;SDS011;71724;-33.900;151.182;2024-01-16T05:23:28;12.88;;;2.50;;
16743;SDS011;71724;-33.900;151.182;2024-01-16T05:25:55;13.65;;;2.67;;
16743;SDS011;71724;-33.900;151.182;2024-01-16T05:28:22;10.88;;;2.13;;
16743;SDS011;71724;-33.900;151.182;2024-01-16T05:30:50;9.45;;;1.85;;
16743;SDS011;71724;-33.900;151.182;2024-01-16T05:33:17;13.05;;;2.72;;
16743;SDS011;71724;-33.900;151.182;2024-01-16T05:35:44;15.32;;;2.72;;
16743;SDS011;71724;-33.900;151.182;2024-01-16T05:38:12;10.68;;;2.30;;
16743;SDS011;71724;-33.900;151.182;2024-01-16T05:40:39;10.55;;;2.17;;
16743;SDS011;71724;-33.900;151.182;2024-01-16T05:43:07;8.70;;;2.15;;
16743;SDS011;71724;-33.900;151.182;2024-01-16T05:45:34;10.23;;;2.22;;
16743;SDS011;71724;-33.900;151.182;2024-01-16T05:48:02;9.95;;;2.22;;
16743;SDS011;71724;-33.900;151.182;2024-01-16T05:50:31;12.50;;;2.75;;
16743;SDS011;71724;-33.900;151.182;2024-01-16T05:53:00;13.30;;;2.70;;
16743;SDS011;71724;-33.900;151.182;2024-01-16T05:55:28;10.23;;;2.40;;
16743;SDS011;71724;-33.900;151.182;2024-01-16T05:57:58;9.93;;;2.20;;
16743;SDS011;71724;-33.900;151.182;2024-01-16T06:00:25;9.30;;;2.38;;
16743;SDS011;71724;-33.900;151.182;2024-01-16T06:02:52;8.90;;;2.45;;
16743;SDS011;71724;-33.900;151.182;2024-01-16T06:05:20;9.80;;;2.50;;
16743;SDS011;71724;-33.900;151.182;2024-01-16T06:07:47;9.77;;;1.98;;
16743;SDS011;71724;-33.900;151.182;2024-01-16T06:10:15;14.25;;;2.80;;
16743;SDS011;71724;-33.900;151.182;2024-01-16T06:12:42;11.63;;;2.65;;
16743;SDS011;71724;-33.900;151.182;2024-01-16T06:15:09;12.25;;;2.78;;
16743;SDS011;71724;-33.900;151.182;2024-01-16T06:17:37;6.97;;;1.85;;
16743;SDS011;71724;-33.900;151.182;2024-01-16T06:20:05;17.15;;;2.67;;
16743;SDS011;71724;-33.900;151.182;2024-01-16T06:22:32;17.60;;;3.10;;
16743;SDS011;71724;-33.900;151.182;2024-01-16T06:25:03;17.17;;;2.85;;
16743;SDS011;71724;-33.900;151.182;2024-01-16T06:27:30;16.48;;;2.97;;
16743;SDS011;71724;-33.900;151.182;2024-01-16T06:29:58;15.65;;;2.72;;
16743;SDS011;71724;-33.900;151.182;2024-01-16T06:32:25;14.52;;;3.00;;
16743;SDS011;71724;-33.900;151.182;2024-01-16T06:34:53;14.00;;;2.58;;
16743;SDS011;71724;-33.900;151.182;2024-01-16T06:37:20;12.05;;;2.63;;
16743;SDS011;71724;-33.900;151.182;2024-01-16T06:39:47;20.63;;;2.58;;
16743;SDS011;71724;-33.900;151.182;2024-01-16T06:42:15;12.85;;;2.80;;
16743;SDS011;71724;-33.900;151.182;2024-01-16T06:44:42;16.25;;;3.05;;
16743;SDS011;71724;-33.900;151.182;2024-01-16T06:47:10;11.48;;;2.55;;
16743;SDS011;71724;-33.900;151.182;2024-01-16T06:49:37;15.98;;;3.17;;
16743;SDS011;71724;-33.900;151.182;2024-01-16T06:52:04;16.55;;;3.13;;
16743;SDS011;71724;-33.900;151.182;2024-01-16T06:54:33;16.13;;;2.75;;
16743;SDS011;71724;-33.900;151.182;2024-01-16T06:57:01;12.52;;;2.60;;
16743;SDS011;71724;-33.900;151.182;2024-01-16T06:59:28;13.25;;;2.65;;
16743;SDS011;71724;-33.900;151.182;2024-01-16T07:01:59;9.15;;;2.30;;
16743;SDS011;71724;-33.900;151.182;2024-01-16T07:04:26;20.02;;;3.13;;
16743;SDS011;71724;-33.900;151.182;2024-01-16T07:06:53;17.25;;;3.33;;
16743;SDS011;71724;-33.900;151.182;2024-01-16T07:09:21;12.50;;;2.60;;
16743;SDS011;71724;-33.900;151.182;2024-01-16T07:11:48;22.08;;;3.80;;
16743;SDS011;71724;-33.900;151.182;2024-01-16T07:14:16;21.20;;;3.70;;
16743;SDS011;71724;-33.900;151.182;2024-01-16T07:16:43;16.88;;;2.78;;
16743;SDS011;71724;-33.900;151.182;2024-01-16T07:19:11;14.25;;;3.22;;
16743;SDS011;71724;-33.900;151.182;2024-01-16T07:21:38;16.48;;;2.95;;
16743;SDS011;71724;-33.900;151.182;2024-01-16T07:24:05;20.73;;;3.40;;
16743;SDS011;71724;-33.900;151.182;2024-01-16T07:26:33;21.10;;;3.28;;
16743;SDS011;71724;-33.900;151.182;2024-01-16T07:29:00;19.85;;;3.58;;
16743;SDS011;71724;-33.900;151.182;2024-01-16T07:31:28;13.63;;;3.10;;
16743;SDS011;71724;-33.900;151.182;2024-01-16T07:33:55;21.08;;;3.30;;
16743;SDS011;71724;-33.900;151.182;2024-01-16T07:36:22;16.05;;;3.15;;
16743;SDS011;71724;-33.900;151.182;2024-01-16T07:38:50;18.08;;;3.30;;
16743;SDS011;71724;-33.900;151.182;2024-01-16T07:41:17;17.23;;;3.30;;
16743;SDS011;71724;-33.900;151.182;2024-01-16T07:43:45;17.90;;;3.03;;
16743;SDS011;71724;-33.900;151.182;2024-01-16T07:46:12;18.05;;;3.53;;
16743;SDS011;71724;-33.900;151.182;2024-01-16T07:48:39;14.98;;;2.63;;
16743;SDS011;71724;-33.900;151.182;2024-01-16T07:51:07;15.98;;;3.80;;
16743;SDS011;71724;-33.900;151.182;2024-01-16T07:53:34;20.52;;;3.60;;
16743;SDS011;71724;-33.900;151.182;2024-01-16T07:56:02;19.25;;;3.47;;
16743;SDS011;71724;-33.900;151.182;2024-01-16T07:58:30;15.20;;;3.30;;
16743;SDS011;71724;-33.900;151.182;2024-01-16T08:00:57;19.35;;;3.67;;
16743;SDS011;71724;-33.900;151.182;2024-01-16T08:03:25;14.27;;;3.50;;
16743;SDS011;71724;-33.900;151.182;2024-01-16T08:05:52;11.02;;;2.72;;
16743;SDS011;71724;-33.900;151.182;2024-01-16T08:08:19;17.30;;;3.65;;
16743;SDS011;71724;-33.900;151.182;2024-01-16T08:10:47;22.80;;;3.75;;
16743;SDS011;71724;-33.900;151.182;2024-01-16T08:13:14;21.65;;;3.33;;
16743;SDS011;71724;-33.900;151.182;2024-01-16T08:15:42;21.40;;;3.92;;
16743;SDS011;71724;-33.900;151.182;2024-01-16T08:18:09;15.43;;;3.33;;
16743;SDS011;71724;-33.900;151.182;2024-01-16T08:20:43;18.00;;;3.15;;
16743;SDS011;71724;-33.900;151.182;2024-01-16T08:23:10;15.07;;;3.40;;
16743;SDS011;71724;-33.900;151.182;2024-01-16T08:25:38;16.15;;;3.22;;
16743;SDS011;71724;-33.900;151.182;2024-01-16T08:28:05;19.35;;;3.80;;
16743;SDS011;71724;-33.900;151.182;2024-01-16T08:30:32;10.18;;;2.85;;
16743;SDS011;71724;-33.900;151.182;2024-01-16T08:33:00;21.52;;;3.38;;
16743;SDS011;71724;-33.900;151.182;2024-01-16T08:35:27;17.20;;;3.45;;
16743;SDS011;71724;-33.900;151.182;2024-01-16T08:37:54;9.80;;;2.60;;
16743;SDS011;71724;-33.900;151.182;2024-01-16T08:40:22;15.18;;;3.35;;
16743;SDS011;71724;-33.900;151.182;2024-01-16T08:42:52;17.45;;;2.92;;
16743;SDS011;71724;-33.900;151.182;2024-01-16T08:45:21;23.02;;;3.60;;
16743;SDS011;71724;-33.900;151.182;2024-01-16T08:47:48;17.75;;;3.22;;
16743;SDS011;71724;-33.900;151.182;2024-01-16T08:50:16;16.52;;;3.10;;
16743;SDS011;71724;-33.900;151.182;2024-01-16T08:52:43;13.30;;;2.70;;
16743;SDS011;71724;-33.900;151.182;2024-01-16T08:55:10;15.10;;;3.50;;
16743;SDS011;71724;-33.900;151.182;2024-01-16T08:57:38;12.77;;;2.90;;
16743;SDS011;71724;-33.900;151.182;2024-01-16T09:00:05;16.40;;;3.22;;
16743;SDS011;71724;-33.900;151.182;2024-01-16T09:02:35;12.73;;;2.97;;
16743;SDS011;71724;-33.900;151.182;2024-01-16T09:05:02;16.48;;;3.03;;
16743;SDS011;71724;-33.900;151.182;2024-01-16T09:07:30;15.70;;;3.22;;
16743;SDS011;71724;-33.900;151.182;2024-01-16T09:09:58;13.05;;;2.67;;
16743;SDS011;71724;-33.900;151.182;2024-01-16T09:12:25;19.25;;;3.63;;
16743;SDS011;71724;-33.900;151.182;2024-01-16T09:14:53;17.23;;;2.97;;
16743;SDS011;71724;-33.900;151.182;2024-01-16T09:17:20;16.70;;;3.17;;
16743;SDS011;71724;-33.900;151.182;2024-01-16T09:19:47;14.18;;;3.05;;
16743;SDS011;71724;-33.900;151.182;2024-01-16T09:22:15;24.15;;;3.55;;
16743;SDS011;71724;-33.900;151.182;2024-01-16T09:24:42;13.43;;;3.05;;
16743;SDS011;71724;-33.900;151.182;2024-01-16T09:27:09;15.70;;;3.47;;
16743;SDS011;71724;-33.900;151.182;2024-01-16T09:29:38;14.80;;;3.33;;
16743;SDS011;71724;-33.900;151.182;2024-01-16T09:32:05;18.27;;;3.28;;
16743;SDS011;71724;-33.900;151.182;2024-01-16T09:34:32;18.40;;;3.28;;
16743;SDS011;71724;-33.900;151.182;2024-01-16T09:37:00;17.92;;;2.92;;
16743;SDS011;71724;-33.900;151.182;2024-01-16T09:39:29;11.88;;;2.75;;
16743;SDS011;71724;-33.900;151.182;2024-01-16T09:41:58;15.43;;;3.15;;
16743;SDS011;71724;-33.900;151.182;2024-01-16T09:44:30;16.63;;;3.38;;
16743;SDS011;71724;-33.900;151.182;2024-01-16T09:46:57;12.65;;;2.95;;
16743;SDS011;71724;-33.900;151.182;2024-01-16T09:49:27;17.25;;;3.47;;
16743;SDS011;71724;-33.900;151.182;2024-01-16T09:51:55;15.02;;;3.00;;
16743;SDS011;71724;-33.900;151.182;2024-01-16T09:54:27;14.85;;;2.67;;
16743;SDS011;71724;-33.900;151.182;2024-01-16T09:56:55;22.77;;;4.13;;
16743;SDS011;71724;-33.900;151.182;2024-01-16T09:59:27;16.67;;;3.65;;
16743;SDS011;71724;-33.900;151.182;2024-01-16T10:01:57;17.15;;;3.35;;
16743;SDS011;71724;-33.900;151.182;2024-01-16T10:04:26;13.95;;;2.85;;
16743;SDS011;71724;-33.900;151.182;2024-01-16T10:06:54;13.35;;;3.40;;
16743;SDS011;71724;-33.900;151.182;2024-01-16T10:09:23;14.98;;;2.83;;
16743;SDS011;71724;-33.900;151.182;2024-01-16T10:11:51;18.13;;;2.85;;
16743;SDS011;71724;-33.900;151.182;2024-01-16T10:14:19;14.38;;;3.10;;
16743;SDS011;71724;-33.900;151.182;2024-01-16T10:19:56;19.45;;;3.28;;
16743;SDS011;71724;-33.900;151.182;2024-01-16T10:22:27;15.45;;;3.20;;
16743;SDS011;71724;-33.900;151.182;2024-01-16T10:25:04;11.23;;;2.97;;
16743;SDS011;71724;-33.900;151.182;2024-01-16T10:27:42;13.18;;;3.30;;
16743;SDS011;71724;-33.900;151.182;2024-01-16T10:30:10;16.05;;;3.25;;
16743;SDS011;71724;-33.900;151.182;2024-01-16T10:32:41;10.77;;;3.13;;
16743;SDS011;71724;-33.900;151.182;2024-01-16T10:35:12;14.07;;;3.38;;
16743;SDS011;71724;-33.900;151.182;2024-01-16T10:37:41;16.67;;;3.10;;
16743;SDS011;71724;-33.900;151.182;2024-01-16T10:43:03;14.85;;;2.95;;
16743;SDS011;71724;-33.900;151.182;2024-01-16T10:45:31;14.07;;;3.03;;
16743;SDS011;71724;-33.900;151.182;2024-01-16T10:48:06;15.13;;;3.28;;
16743;SDS011;71724;-33.900;151.182;2024-01-16T10:50:35;13.27;;;2.70;;
16743;SDS011;71724;-33.900;151.182;2024-01-16T10:53:04;18.15;;;2.72;;
16743;SDS011;71724;-33.900;151.182;2024-01-16T10:55:51;13.00;;;2.83;;
16743;SDS011;71724;-33.900;151.182;2024-01-16T10:58:22;15.52;;;2.88;;
16743;SDS011;71724;-33.900;151.182;2024-01-16T11:00:54;24.00;;;3.65;;
16743;SDS011;71724;-33.900;151.182;2024-01-16T11:06:09;12.18;;;2.72;;
16743;SDS011;71724;-33.900;151.182;2024-01-16T11:08:36;15.88;;;3.35;;
16743;SDS011;71724;-33.900;151.182;2024-01-16T11:11:05;20.85;;;3.63;;
16743;SDS011;71724;-33.900;151.182;2024-01-16T11:13:34;12.13;;;2.67;;
16743;SDS011;71724;-33.900;151.182;2024-01-16T11:16:02;16.20;;;3.30;;
16743;SDS011;71724;-33.900;151.182;2024-01-16T11:18:31;11.85;;;3.00;;
16743;SDS011;71724;-33.900;151.182;2024-01-16T11:21:01;21.40;;;3.35;;
16743;SDS011;71724;-33.900;151.182;2024-01-16T11:23:39;11.30;;;2.67;;
16743;SDS011;71724;-33.900;151.182;2024-01-16T11:26:26;16.25;;;2.85;;
16743;SDS011;71724;-33.900;151.182;2024-01-16T11:28:58;15.93;;;2.90;;
16743;SDS011;71724;-33.900;151.182;2024-01-16T11:34:01;21.73;;;3.95;;
16743;SDS011;71724;-33.900;151.182;2024-01-16T11:36:42;18.40;;;3.00;;
16743;SDS011;71724;-33.900;151.182;2024-01-16T11:39:21;17.75;;;3.38;;
16743;SDS011;71724;-33.900;151.182;2024-01-16T11:41:56;16.65;;;3.42;;
16743;SDS011;71724;-33.900;151.182;2024-01-16T11:47:19;18.50;;;3.45;;
16743;SDS011;71724;-33.900;151.182;2024-01-16T11:49:47;18.35;;;3.10;;
16743;SDS011;71724;-33.900;151.182;2024-01-16T11:52:49;22.48;;;3.47;;
16743;SDS011;71724;-33.900;151.182;2024-01-16T11:55:30;17.75;;;3.22;;
16743;SDS011;71724;-33.900;151.182;2024-01-16T12:00:47;19.08;;;2.95;;
16743;SDS011;71724;-33.900;151.182;2024-01-16T12:03:22;15.77;;;2.95;;
16743;SDS011;71724;-33.900;151.182;2024-01-16T12:05:56;22.55;;;3.80;;
16743;SDS011;71724;-33.900;151.182;2024-01-16T12:08:25;14.38;;;3.35;;
16743;SDS011;71724;-33.900;151.182;2024-01-16T12:10:54;18.25;;;3.42;;
16743;SDS011;71724;-33.900;151.182;2024-01-16T12:13:21;24.63;;;3.78;;
16743;SDS011;71724;-33.900;151.182;2024-01-16T12:15:49;26.55;;;4.10;;
16743;SDS011;71724;-33.900;151.182;2024-01-16T12:18:26;22.05;;;4.22;;
16743;SDS011;71724;-33.900;151.182;2024-01-16T12:20:54;19.25;;;3.40;;
16743;SDS011;71724;-33.900;151.182;2024-01-16T12:23:21;23.95;;;4.07;;
16743;SDS011;71724;-33.900;151.182;2024-01-16T12:25:51;16.10;;;3.03;;
16743;SDS011;71724;-33.900;151.182;2024-01-16T12:28:27;15.75;;;3.30;;
16743;SDS011;71724;-33.900;151.182;2024-01-16T12:30:54;21.58;;;4.03;;
16743;SDS011;71724;-33.900;151.182;2024-01-16T12:33:22;20.42;;;3.53;;
16743;SDS011;71724;-33.900;151.182;2024-01-16T12:35:49;21.60;;;3.83;;
16743;SDS011;71724;-33.900;151.182;2024-01-16T12:38:27;11.40;;;2.63;;
16743;SDS011;71724;-33.900;151.182;2024-01-16T12:40:54;17.55;;;3.10;;
16743;SDS011;71724;-33.900;151.182;2024-01-16T12:43:22;16.60;;;3.15;;
16743;SDS011;71724;-33.900;151.182;2024-01-16T12:45:55;20.52;;;3.25;;
16743;SDS011;71724;-33.900;151.182;2024-01-16T12:48:25;17.67;;;3.45;;
16743;SDS011;71724;-33.900;151.182;2024-01-16T12:50:59;15.82;;;3.10;;
16743;SDS011;71724;-33.900;151.182;2024-01-16T12:53:28;15.82;;;3.20;;
16743;SDS011;71724;-33.900;151.182;2024-01-16T12:55:58;16.85;;;3.65;;
16743;SDS011;71724;-33.900;151.182;2024-01-16T12:58:31;19.45;;;3.78;;
16743;SDS011;71724;-33.900;151.182;2024-01-16T13:01:20;10.40;;;2.47;;
16743;SDS011;71724;-33.900;151.182;2024-01-16T13:03:51;11.68;;;3.03;;
16743;SDS011;71724;-33.900;151.182;2024-01-16T13:06:22;19.63;;;3.63;;
16743;SDS011;71724;-33.900;151.182;2024-01-16T13:08:50;12.93;;;2.80;;
16743;SDS011;71724;-33.900;151.182;2024-01-16T13:11:31;21.63;;;3.78;;
16743;SDS011;71724;-33.900;151.182;2024-01-16T13:14:10;16.40;;;3.47;;
16743;SDS011;71724;-33.900;151.182;2024-01-16T13:16:37;17.38;;;3.38;;
16743;SDS011;71724;-33.900;151.182;2024-01-16T13:19:05;15.40;;;2.88;;
16743;SDS011;71724;-33.900;151.182;2024-01-16T13:21:38;18.45;;;3.50;;
16743;SDS011;71724;-33.900;151.182;2024-01-16T13:24:06;12.55;;;2.78;;
16743;SDS011;71724;-33.900;151.182;2024-01-16T13:26:34;18.63;;;3.35;;
16743;SDS011;71724;-33.900;151.182;2024-01-16T13:29:03;16.30;;;3.10;;
16743;SDS011;71724;-33.900;151.182;2024-01-16T13:31:31;19.13;;;3.60;;
16743;SDS011;71724;-33.900;151.182;2024-01-16T13:33:59;20.73;;;3.60;;
16743;SDS011;71724;-33.900;151.182;2024-01-16T13:36:26;22.80;;;3.83;;
16743;SDS011;71724;-33.900;151.182;2024-01-16T13:38:54;17.88;;;3.60;;
16743;SDS011;71724;-33.900;151.182;2024-01-16T13:41:24;14.45;;;3.08;;
16743;SDS011;71724;-33.900;151.182;2024-01-16T13:43:53;15.50;;;2.80;;
16743;SDS011;71724;-33.900;151.182;2024-01-16T13:46:20;12.43;;;2.97;;
16743;SDS011;71724;-33.900;151.182;2024-01-16T13:48:48;22.08;;;4.15;;
16743;SDS011;71724;-33.900;151.182;2024-01-16T13:51:16;22.15;;;4.00;;
16743;SDS011;71724;-33.900;151.182;2024-01-16T13:53:43;18.33;;;3.10;;
16743;SDS011;71724;-33.900;151.182;2024-01-16T13:56:10;19.42;;;3.67;;
16743;SDS011;71724;-33.900;151.182;2024-01-16T13:58:38;14.93;;;3.08;;
16743;SDS011;71724;-33.900;151.182;2024-01-16T14:01:05;14.95;;;2.92;;
16743;SDS011;71724;-33.900;151.182;2024-01-16T14:03:32;14.13;;;3.13;;
16743;SDS011;71724;-33.900;151.182;2024-01-16T14:06:00;11.32;;;2.85;;
16743;SDS011;71724;-33.900;151.182;2024-01-16T14:08:27;18.90;;;3.75;;
16743;SDS011;71724;-33.900;151.182;2024-01-16T14:10:54;21.77;;;3.85;;
16743;SDS011;71724;-33.900;151.182;2024-01-16T14:13:22;19.38;;;4.05;;
16743;SDS011;71724;-33.900;151.182;2024-01-16T14:15:51;15.45;;;3.17;;
16743;SDS011;71724;-33.900;151.182;2024-01-16T14:18:18;19.75;;;3.53;;
16743;SDS011;71724;-33.900;151.182;2024-01-16T14:20:45;15.48;;;3.92;;
16743;SDS011;71724;-33.900;151.182;2024-01-16T14:23:16;23.73;;;4.43;;
16743;SDS011;71724;-33.900;151.182;2024-01-16T14:25:43;11.63;;;2.75;;